sensor_id;sensor_type;location;lat;lon;timestamp;temperature;humidity
15105;DHT22;7653;48.994;9.212;2023-04-01T00:01:04;9.10;69.70
15105;DHT22;7653;48.994;9.212;2023-04-01T00:03:36;9.00;70.30
15105;DHT22;7653;48.994;9.212;2023-04-01T00:06:02;9.00;69.60
15105;DHT22;7653;48.994;9.212;2023-04-01T00:08:29;9.10;69.70
15105;DHT22;7653;48.994;9.212;2023-04-01T00:10:55;9.10;69.70
15105;DHT22;7653;48.994;9.212;2023-04-01T00:13:22;9.10;69.70
15105;DHT22;7653;48.994;9.212;2023-04-01T00:15:48;9.10;69.70
15105;DHT22;7653;48.994;9.212;2023-04-01T00:18:14;9.00;69.60
15105;DHT22;7653;48.994;9.212;2023-04-01T00:20:47;9.00;69.60
15105;DHT22;7653;48.994;9.212;2023-04-01T00:23:13;9.00;69.60
15105;DHT22;7653;48.994;9.212;2023-04-01T00:25:39;9.00;69.60
15105;DHT22;7653;48.994;9.212;2023-04-01T00:28:05;9.00;70.30
15105;DHT22;7653;48.994;9.212;2023-04-01T00:30:31;9.00;68.40
15105;DHT22;7653;48.994;9.212;2023-04-01T00:32:56;9.00;68.20
15105;DHT22;7653;48.994;9.212;2023-04-01T00:35:22;9.00;69.20
15105;DHT22;7653;48.994;9.212;2023-04-01T00:37:48;8.90;68.40
15105;DHT22;7653;48.994;9.212;2023-04-01T00:42:51;8.90;68.50
15105;DHT22;7653;48.994;9.212;2023-04-01T00:45:30;8.90;68.80
15105;DHT22;7653;48.994;9.212;2023-04-01T00:47:56;9.00;67.60
15105;DHT22;7653;48.994;9.212;2023-04-01T00:50:24;9.00;66.70
15105;DHT22;7653;48.994;9.212;2023-04-01T00:52:52;9.00;66.30
15105;DHT22;7653;48.994;9.212;2023-04-01T00:55:19;9.00;66.00
15105;DHT22;7653;48.994;9.212;2023-04-01T00:57:46;9.00;66.10
15105;DHT22;7653;48.994;9.212;2023-04-01T01:00:14;8.90;66.70
15105;DHT22;7653;48.994;9.212;2023-04-01T01:02:42;8.90;67.10
15105;DHT22;7653;48.994;9.212;2023-04-01T01:05:13;8.90;66.40
15105;DHT22;7653;48.994;9.212;2023-04-01T01:15:37;8.90;68.10
15105;DHT22;7653;48.994;9.212;2023-04-01T01:35:20;9.50;53.10
15105;DHT22;7653;48.994;9.212;2023-04-01T01:37:51;9.80;48.70
15105;DHT22;7653;48.994;9.212;2023-04-01T01:40:18;10.00;45.80
15105;DHT22;7653;48.994;9.212;2023-04-01T01:42:48;10.00;44.70
15105;DHT22;7653;48.994;9.212;2023-04-01T01:45:16;10.10;43.90
15105;DHT22;7653;48.994;9.212;2023-04-01T01:47:43;10.10;44.00
15105;DHT22;7653;48.994;9.212;2023-04-01T01:50:11;10.20;43.00
15105;DHT22;7653;48.994;9.212;2023-04-01T01:52:38;10.20;41.50
15105;DHT22;7653;48.994;9.212;2023-04-01T01:55:22;10.30;41.00
15105;DHT22;7653;48.994;9.212;2023-04-01T01:57:48;10.30;40.90
15105;DHT22;7653;48.994;9.212;2023-04-01T02:00:15;10.40;41.00
15105;DHT22;7653;48.994;9.212;2023-04-01T02:02:44;10.40;39.90
15105;DHT22;7653;48.994;9.212;2023-04-01T02:05:21;10.40;40.00
15105;DHT22;7653;48.994;9.212;2023-04-01T02:08:07;10.40;41.00
15105;DHT22;7653;48.994;9.212;2023-04-01T02:10:38;10.40;39.10
15105;DHT22;7653;48.994;9.212;2023-04-01T02:13:13;10.50;36.80
15105;DHT22;7653;48.994;9.212;2023-04-01T02:15:45;10.50;36.70
15105;DHT22;7653;48.994;9.212;2023-04-01T02:18:13;10.50;36.10
15105;DHT22;7653;48.994;9.212;2023-04-01T02:20:40;10.50;35.20
15105;DHT22;7653;48.994;9.212;2023-04-01T02:23:07;10.50;36.10
15105;DHT22;7653;48.994;9.212;2023-04-01T02:25:36;10.50;37.40
15105;DHT22;7653;48.994;9.212;2023-04-01T02:28:04;10.30;41.10
15105;DHT22;7653;48.994;9.212;2023-04-01T02:30:33;10.20;45.70
15105;DHT22;7653;48.994;9.212;2023-04-01T02:33:00;10.00;49.30
15105;DHT22;7653;48.994;9.212;2023-04-01T02:35:26;9.80;52.90
15105;DHT22;7653;48.994;9.212;2023-04-01T02:37:53;9.90;44.70
15105;DHT22;7653;48.994;9.212;2023-04-01T02:40:19;10.10;43.10
15105;DHT22;7653;48.994;9.212;2023-04-01T02:42:45;10.10;42.20
15105;DHT22;7653;48.994;9.212;2023-04-01T02:45:12;10.10;43.90
15105;DHT22;7653;48.994;9.212;2023-04-01T02:47:38;10.00;42.50
15105;DHT22;7653;48.994;9.212;2023-04-01T02:50:04;10.10;43.40
15105;DHT22;7653;48.994;9.212;2023-04-01T02:52:31;9.90;52.30
15105;DHT22;7653;48.994;9.212;2023-04-01T02:54:57;10.00;42.40
15105;DHT22;7653;48.994;9.212;2023-04-01T02:57:23;10.00;43.80
15105;DHT22;7653;48.994;9.212;2023-04-01T02:59:49;9.90;48.90
15105;DHT22;7653;48.994;9.212;2023-04-01T03:02:15;9.90;51.40
15105;DHT22;7653;48.994;9.212;2023-04-01T03:04:41;9.70;51.10
15105;DHT22;7653;48.994;9.212;2023-04-01T03:07:07;9.80;48.00
15105;DHT22;7653;48.994;9.212;2023-04-01T03:09:33;9.90;43.80
15105;DHT22;7653;48.994;9.212;2023-04-01T03:11:59;10.00;41.30
15105;DHT22;7653;48.994;9.212;2023-04-01T03:14:25;10.00;42.30
15105;DHT22;7653;48.994;9.212;2023-04-01T03:16:51;10.00;44.20
15105;DHT22;7653;48.994;9.212;2023-04-01T03:19:16;9.90;46.60
15105;DHT22;7653;48.994;9.212;2023-04-01T03:21:42;9.90;44.40
15105;DHT22;7653;48.994;9.212;2023-04-01T03:24:08;9.90;42.10
15105;DHT22;7653;48.994;9.212;2023-04-01T03:26:33;9.90;45.60
15105;DHT22;7653;48.994;9.212;2023-04-01T03:28:59;9.70;47.30
15105;DHT22;7653;48.994;9.212;2023-04-01T03:31:25;9.70;44.50
15105;DHT22;7653;48.994;9.212;2023-04-01T03:33:50;9.70;43.20
15105;DHT22;7653;48.994;9.212;2023-04-01T03:36:16;9.80;43.10
15105;DHT22;7653;48.994;9.212;2023-04-01T03:38:44;9.60;45.30
15105;DHT22;7653;48.994;9.212;2023-04-01T03:41:14;9.60;46.40
15105;DHT22;7653;48.994;9.212;2023-04-01T03:43:40;9.40;50.90
15105;DHT22;7653;48.994;9.212;2023-04-01T03:46:06;9.20;53.10
15105;DHT22;7653;48.994;9.212;2023-04-01T03:48:31;9.30;50.80
15105;DHT22;7653;48.994;9.212;2023-04-01T03:50:57;9.30;50.80
15105;DHT22;7653;48.994;9.212;2023-04-01T03:53:23;9.20;50.70
15105;DHT22;7653;48.994;9.212;2023-04-01T03:55:48;9.20;50.70
15105;DHT22;7653;48.994;9.212;2023-04-01T03:58:16;9.20;50.70
15105;DHT22;7653;48.994;9.212;2023-04-01T04:00:42;9.20;50.70
15105;DHT22;7653;48.994;9.212;2023-04-01T04:03:08;9.20;50.70
15105;DHT22;7653;48.994;9.212;2023-04-01T04:05:33;9.10;51.70
15105;DHT22;7653;48.994;9.212;2023-04-01T04:07:59;9.00;53.10
15105;DHT22;7653;48.994;9.212;2023-04-01T04:10:24;8.90;54.90
15105;DHT22;7653;48.994;9.212;2023-04-01T04:12:51;8.80;55.60
15105;DHT22;7653;48.994;9.212;2023-04-01T04:15:17;8.90;55.50
15105;DHT22;7653;48.994;9.212;2023-04-01T04:17:44;8.90;56.30
15105;DHT22;7653;48.994;9.212;2023-04-01T04:20:10;9.00;56.30
15105;DHT22;7653;48.994;9.212;2023-04-01T04:22:35;8.90;56.80
15105;DHT22;7653;48.994;9.212;2023-04-01T04:25:01;9.00;57.50
15105;DHT22;7653;48.994;9.212;2023-04-01T04:27:27;8.90;57.90
15105;DHT22;7653;48.994;9.212;2023-04-01T04:29:52;8.80;59.00
15105;DHT22;7653;48.994;9.212;2023-04-01T04:32:18;8.70;59.70
15105;DHT22;7653;48.994;9.212;2023-04-01T04:34:43;8.70;60.40
15105;DHT22;7653;48.994;9.212;2023-04-01T04:37:09;8.70;59.70
15105;DHT22;7653;48.994;9.212;2023-04-01T04:39:35;8.80;59.90
15105;DHT22;7653;48.994;9.212;2023-04-01T04:42:00;8.80;59.60
15105;DHT22;7653;48.994;9.212;2023-04-01T04:44:26;8.80;60.50
15105;DHT22;7653;48.994;9.212;2023-04-01T04:46:52;8.80;59.70
15105;DHT22;7653;48.994;9.212;2023-04-01T04:49:17;8.80;59.00
15105;DHT22;7653;48.994;9.212;2023-04-01T04:51:43;8.70;60.30
15105;DHT22;7653;48.994;9.212;2023-04-01T04:54:09;8.70;59.70
15105;DHT22;7653;48.994;9.212;2023-04-01T04:56:35;8.70;59.80
15105;DHT22;7653;48.994;9.212;2023-04-01T04:59:01;8.70;59.60
15105;DHT22;7653;48.994;9.212;2023-04-01T05:01:27;8.70;59.40
15105;DHT22;7653;48.994;9.212;2023-04-01T05:03:52;8.80;58.60
15105;DHT22;7653;48.994;9.212;2023-04-01T05:06:19;8.80;58.80
15105;DHT22;7653;48.994;9.212;2023-04-01T05:08:45;8.80;58.70
15105;DHT22;7653;48.994;9.212;2023-04-01T05:11:13;8.80;57.80
15105;DHT22;7653;48.994;9.212;2023-04-01T05:13:39;8.90;58.10
15105;DHT22;7653;48.994;9.212;2023-04-01T05:16:09;8.90;57.10
15105;DHT22;7653;48.994;9.212;2023-04-01T05:18:35;8.90;57.00
15105;DHT22;7653;48.994;9.212;2023-04-01T05:21:00;8.90;57.20
15105;DHT22;7653;48.994;9.212;2023-04-01T05:23:26;8.80;57.60
15105;DHT22;7653;48.994;9.212;2023-04-01T05:25:51;8.80;57.00
15105;DHT22;7653;48.994;9.212;2023-04-01T05:28:19;8.80;57.30
15105;DHT22;7653;48.994;9.212;2023-04-01T05:30:45;8.80;57.40
15105;DHT22;7653;48.994;9.212;2023-04-01T05:33:12;8.80;57.30
15105;DHT22;7653;48.994;9.212;2023-04-01T05:35:39;8.90;57.50
15105;DHT22;7653;48.994;9.212;2023-04-01T05:38:05;8.90;57.30
15105;DHT22;7653;48.994;9.212;2023-04-01T05:40:31;9.00;56.70
15105;DHT22;7653;48.994;9.212;2023-04-01T05:42:57;9.00;56.60
15105;DHT22;7653;48.994;9.212;2023-04-01T05:45:23;9.10;55.50
15105;DHT22;7653;48.994;9.212;2023-04-01T05:47:49;9.00;55.80
15105;DHT22;7653;48.994;9.212;2023-04-01T05:50:15;9.10;55.50
15105;DHT22;7653;48.994;9.212;2023-04-01T05:52:41;9.10;56.10
15105;DHT22;7653;48.994;9.212;2023-04-01T05:55:06;9.10;56.10
15105;DHT22;7653;48.994;9.212;2023-04-01T05:57:32;9.20;56.00
15105;DHT22;7653;48.994;9.212;2023-04-01T05:59:58;9.20;56.30
15105;DHT22;7653;48.994;9.212;2023-04-01T06:02:23;9.10;56.50
15105;DHT22;7653;48.994;9.212;2023-04-01T06:04:50;9.20;56.80
15105;DHT22;7653;48.994;9.212;2023-04-01T06:07:19;9.10;57.20
15105;DHT22;7653;48.994;9.212;2023-04-01T06:09:45;9.10;58.00
15105;DHT22;7653;48.994;9.212;2023-04-01T06:12:16;9.20;59.30
15105;DHT22;7653;48.994;9.212;2023-04-01T06:25:44;9.30;56.80
15105;DHT22;7653;48.994;9.212;2023-04-01T06:33:42;9.40;56.60
15105;DHT22;7653;48.994;9.212;2023-04-01T06:47:00;9.50;54.20
15105;DHT22;7653;48.994;9.212;2023-04-01T06:54:58;9.70;49.30
15105;DHT22;7653;48.994;9.212;2023-04-01T06:57:34;9.80;51.20
15105;DHT22;7653;48.994;9.212;2023-04-01T07:00:25;9.80;49.70
15105;DHT22;7653;48.994;9.212;2023-04-01T07:05:45;9.90;47.20
15105;DHT22;7653;48.994;9.212;2023-04-01T07:08:16;9.90;48.00
15105;DHT22;7653;48.994;9.212;2023-04-01T07:10:56;9.90;47.10
15105;DHT22;7653;48.994;9.212;2023-04-01T07:13:55;9.90;47.70
15105;DHT22;7653;48.994;9.212;2023-04-01T07:16:31;9.90;47.30
15105;DHT22;7653;48.994;9.212;2023-04-01T07:21:49;10.00;45.60
15105;DHT22;7653;48.994;9.212;2023-04-01T07:24:27;10.10;45.70
15105;DHT22;7653;48.994;9.212;2023-04-01T07:26:56;10.10;46.10
15105;DHT22;7653;48.994;9.212;2023-04-01T07:29:22;10.10;46.50
15105;DHT22;7653;48.994;9.212;2023-04-01T07:32:29;10.10;47.00
15105;DHT22;7653;48.994;9.212;2023-04-01T07:37:28;10.10;46.60
15105;DHT22;7653;48.994;9.212;2023-04-01T07:42:57;10.10;46.00
15105;DHT22;7653;48.994;9.212;2023-04-01T07:48:36;10.20;46.50
15105;DHT22;7653;48.994;9.212;2023-04-01T07:51:10;10.30;45.30
15105;DHT22;7653;48.994;9.212;2023-04-01T07:53:51;10.30;45.90
15105;DHT22;7653;48.994;9.212;2023-04-01T08:10:14;10.30;45.90
15105;DHT22;7653;48.994;9.212;2023-04-01T08:13:02;10.30;46.60
15105;DHT22;7653;48.994;9.212;2023-04-01T08:18:34;10.40;45.90
15105;DHT22;7653;48.994;9.212;2023-04-01T08:21:17;10.30;46.80
15105;DHT22;7653;48.994;9.212;2023-04-01T08:23:52;10.30;46.80
15105;DHT22;7653;48.994;9.212;2023-04-01T08:26:38;10.20;48.70
15105;DHT22;7653;48.994;9.212;2023-04-01T08:32:36;10.20;53.20
15105;DHT22;7653;48.994;9.212;2023-04-01T08:37:38;10.00;58.70
15105;DHT22;7653;48.994;9.212;2023-04-01T08:46:35;9.80;70.30
15105;DHT22;7653;48.994;9.212;2023-04-01T08:55:30;9.70;70.20
15105;DHT22;7653;48.994;9.212;2023-04-01T09:48:52;9.90;64.60
15105;DHT22;7653;48.994;9.212;2023-04-01T09:57:38;10.20;60.10
15105;DHT22;7653;48.994;9.212;2023-04-01T10:25:23;10.40;50.80
15105;DHT22;7653;48.994;9.212;2023-04-01T10:58:23;10.50;48.00
15105;DHT22;7653;48.994;9.212;2023-04-01T11:17:56;10.60;46.00
15105;DHT22;7653;48.994;9.212;2023-04-01T11:20:42;10.70;44.30
15105;DHT22;7653;48.994;9.212;2023-04-01T11:23:43;10.70;47.70
15105;DHT22;7653;48.994;9.212;2023-04-01T11:29:03;10.70;44.60
15105;DHT22;7653;48.994;9.212;2023-04-01T11:42:54;11.10;45.00
15105;DHT22;7653;48.994;9.212;2023-04-01T12:25:19;11.30;42.50
15105;DHT22;7653;48.994;9.212;2023-04-01T12:30:55;11.20;38.30
15105;DHT22;7653;48.994;9.212;2023-04-01T12:41:51;11.20;40.20
15105;DHT22;7653;48.994;9.212;2023-04-01T12:47:18;11.10;40.50
15105;DHT22;7653;48.994;9.212;2023-04-01T13:28:56;11.00;46.60
15105;DHT22;7653;48.994;9.212;2023-04-01T13:31:26;10.80;45.80
15105;DHT22;7653;48.994;9.212;2023-04-01T13:56:34;10.20;56.00
15105;DHT22;7653;48.994;9.212;2023-04-01T14:13:15;10.30;50.70
15105;DHT22;7653;48.994;9.212;2023-04-01T14:16:25;10.30;52.90
15105;DHT22;7653;48.994;9.212;2023-04-01T14:19:00;10.30;53.20
15105;DHT22;7653;48.994;9.212;2023-04-01T14:21:33;10.30;57.00
15105;DHT22;7653;48.994;9.212;2023-04-01T14:41:13;10.90;46.40
15105;DHT22;7653;48.994;9.212;2023-04-01T14:50:06;11.10;45.70
15105;DHT22;7653;48.994;9.212;2023-04-01T14:54:37;11.40;42.00
15105;DHT22;7653;48.994;9.212;2023-04-01T14:59:49;11.30;44.40
15105;DHT22;7653;48.994;9.212;2023-04-01T15:05:18;11.00;44.20
15105;DHT22;7653;48.994;9.212;2023-04-01T15:07:55;11.10;45.40
15105;DHT22;7653;48.994;9.212;2023-04-01T15:38:21;10.90;45.70
15105;DHT22;7653;48.994;9.212;2023-04-01T15:41:09;10.90;43.80
15105;DHT22;7653;48.994;9.212;2023-04-01T15:43:47;10.90;45.30
15105;DHT22;7653;48.994;9.212;2023-04-01T15:57:15;10.90;46.50
15105;DHT22;7653;48.994;9.212;2023-04-01T16:02:50;10.80;45.00
15105;DHT22;7653;48.994;9.212;2023-04-01T16:17:05;10.90;44.70
15105;DHT22;7653;48.994;9.212;2023-04-01T16:22:27;10.90;43.90
15105;DHT22;7653;48.994;9.212;2023-04-01T16:25:19;10.90;43.60
15105;DHT22;7653;48.994;9.212;2023-04-01T16:27:48;11.00;44.30
15105;DHT22;7653;48.994;9.212;2023-04-01T16:30:44;11.00;43.10
15105;DHT22;7653;48.994;9.212;2023-04-01T16:33:22;11.00;44.10
15105;DHT22;7653;48.994;9.212;2023-04-01T16:41:51;10.90;42.90
15105;DHT22;7653;48.994;9.212;2023-04-01T16:44:23;10.90;42.20
15105;DHT22;7653;48.994;9.212;2023-04-01T16:46:55;10.90;43.10
15105;DHT22;7653;48.994;9.212;2023-04-01T16:57:36;10.90;42.30
15105;DHT22;7653;48.994;9.212;2023-04-01T17:00:27;10.90;42.90
15105;DHT22;7653;48.994;9.212;2023-04-01T17:03:02;10.90;42.70
15105;DHT22;7653;48.994;9.212;2023-04-01T17:14:29;10.80;43.00
15105;DHT22;7653;48.994;9.212;2023-04-01T17:33:46;10.80;43.40
15105;DHT22;7653;48.994;9.212;2023-04-01T17:50:18;10.70;46.20
15105;DHT22;7653;48.994;9.212;2023-04-01T17:55:59;10.60;46.10
15105;DHT22;7653;48.994;9.212;2023-04-01T18:01:36;10.60;46.10
15105;DHT22;7653;48.994;9.212;2023-04-01T18:06:59;10.50;45.00
15105;DHT22;7653;48.994;9.212;2023-04-01T18:14:53;10.50;45.70
15105;DHT22;7653;48.994;9.212;2023-04-01T18:17:39;10.40;45.50
15105;DHT22;7653;48.994;9.212;2023-04-01T18:20:33;10.40;45.90
15105;DHT22;7653;48.994;9.212;2023-04-01T18:23:20;10.30;45.00
15105;DHT22;7653;48.994;9.212;2023-04-01T18:25:48;10.40;45.50
15105;DHT22;7653;48.994;9.212;2023-04-01T18:31:23;10.30;45.00
15105;DHT22;7653;48.994;9.212;2023-04-01T18:36:43;10.20;47.20
15105;DHT22;7653;48.994;9.212;2023-04-01T18:39:22;10.20;47.30
15105;DHT22;7653;48.994;9.212;2023-04-01T18:44:34;10.10;48.50
15105;DHT22;7653;48.994;9.212;2023-04-01T18:50:23;10.20;49.30
15105;DHT22;7653;48.994;9.212;2023-04-01T18:55:58;10.10;50.50
15105;DHT22;7653;48.994;9.212;2023-04-01T19:04:45;9.90;51.30
15105;DHT22;7653;48.994;9.212;2023-04-01T19:10:27;10.00;50.40
15105;DHT22;7653;48.994;9.212;2023-04-01T19:21:16;9.80;52.70
15105;DHT22;7653;48.994;9.212;2023-04-01T19:38:15;9.70;54.90
15105;DHT22;7653;48.994;9.212;2023-04-01T19:45:59;9.60;55.80
15105;DHT22;7653;48.994;9.212;2023-04-01T19:51:22;9.60;56.20
15105;DHT22;7653;48.994;9.212;2023-04-01T19:59:25;9.50;56.60
15105;DHT22;7653;48.994;9.212;2023-04-01T20:04:53;9.40;59.70
15105;DHT22;7653;48.994;9.212;2023-04-01T20:07:30;9.50;57.00
15105;DHT22;7653;48.994;9.212;2023-04-01T20:10:05;9.60;57.00
15105;DHT22;7653;48.994;9.212;2023-04-01T20:15:34;9.60;56.50
15105;DHT22;7653;48.994;9.212;2023-04-01T20:18:12;9.60;56.40
15105;DHT22;7653;48.994;9.212;2023-04-01T20:20:39;9.60;56.70
15105;DHT22;7653;48.994;9.212;2023-04-01T20:25:43;9.50;57.80
15105;DHT22;7653;48.994;9.212;2023-04-01T20:28:13;9.50;57.90
15105;DHT22;7653;48.994;9.212;2023-04-01T20:30:54;9.50;58.60
15105;DHT22;7653;48.994;9.212;2023-04-01T20:50:56;9.30;62.20
15105;DHT22;7653;48.994;9.212;2023-04-01T20:59:03;9.10;63.60
15105;DHT22;7653;48.994;9.212;2023-04-01T21:15:43;9.10;64.30
15105;DHT22;7653;48.994;9.212;2023-04-01T21:41:40;9.40;64.50
15105;DHT22;7653;48.994;9.212;2023-04-01T21:49:47;9.50;60.40
15105;DHT22;7653;48.994;9.212;2023-04-01T22:13:12;9.50;60.40
15105;DHT22;7653;48.994;9.212;2023-04-01T22:18:30;9.60;58.80
15105;DHT22;7653;48.994;9.212;2023-04-01T22:26:29;9.70;57.80
15105;DHT22;7653;48.994;9.212;2023-04-01T22:31:52;9.70;56.70
15105;DHT22;7653;48.994;9.212;2023-04-01T22:42:39;9.80;56.10
15105;DHT22;7653;48.994;9.212;2023-04-01T22:50:19;9.70;56.20
15105;DHT22;7653;48.994;9.212;2023-04-01T22:53:00;9.70;56.40
15105;DHT22;7653;48.994;9.212;2023-04-01T22:55:33;9.70;56.50
15105;DHT22;7653;48.994;9.212;2023-04-01T22:58:04;9.70;56.80
15105;DHT22;7653;48.994;9.212;2023-04-01T23:00:45;9.70;57.30
15105;DHT22;7653;48.994;9.212;2023-04-01T23:03:25;9.70;56.50
15105;DHT22;7653;48.994;9.212;2023-04-01T23:05:55;9.60;56.40
15105;DHT22;7653;48.994;9.212;2023-04-01T23:11:06;9.70;56.30
15105;DHT22;7653;48.994;9.212;2023-04-01T23:13:40;9.80;56.00
15105;DHT22;7653;48.994;9.212;2023-04-01T23:16:08;9.70;56.00
15105;DHT22;7653;48.994;9.212;2023-04-01T23:18:47;9.70;55.90
15105;DHT22;7653;48.994;9.212;2023-04-01T23:21:30;9.70;57.10
15105;DHT22;7653;48.994;9.212;2023-04-01T23:24:11;9.70;57.30
15105;DHT22;7653;48.994;9.212;2023-04-01T23:27:40;9.70;57.50
15105;DHT22;7653;48.994;9.212;2023-04-01T23:29:46;9.70;58.70
15105;DHT22;7653;48.994;9.212;2023-04-01T23:32:19;9.70;57.80
15105;DHT22;7653;48.994;9.212;2023-04-01T23:34:52;9.70;59.80
15105;DHT22;7653;48.994;9.212;2023-04-01T23:37:20;9.60;60.50
15105;DHT22;7653;48.994;9.212;2023-04-01T23:44:42;9.50;62.90
15105;DHT22;7653;48.994;9.212;2023-04-01T23:47:14;9.50;61.90
15105;DHT22;7653;48.994;9.212;2023-04-01T23:50:03;9.50;62.70
15105;DHT22;7653;48.994;9.212;2023-04-01T23:52:52;9.50;63.00
15105;DHT22;7653;48.994;9.212;2023-04-01T23:55:26;9.50;61.80
